sensor_id;sensor_type;location;lat;lon;timestamp;pressure;altitude;pressure_sealevel;temperature;humidity
62548;BME280;48602;45.192;5.722;2023-04-21T00:00:22;98613.72;;;11.76;82.76
62548;BME280;48602;45.192;5.722;2023-04-21T00:02:48;98611.91;;;11.76;82.22
62548;BME280;48602;45.192;5.722;2023-04-21T00:05:13;98604.91;;;11.75;82.60
62548;BME280;48602;45.192;5.722;2023-04-21T00:07:40;98598.84;;;11.73;82.59
62548;BME280;48602;45.192;5.722;2023-04-21T00:10:10;98601.41;;;11.75;82.47
62548;BME280;48602;45.192;5.722;2023-04-21T00:12:36;98593.47;;;11.75;82.02
62548;BME280;48602;45.192;5.722;2023-04-21T00:15:03;98583.00;;;11.73;81.80
62548;BME280;48602;45.192;5.722;2023-04-21T00:17:28;98579.38;;;11.76;81.78
62548;BME280;48602;45.192;5.722;2023-04-21T00:19:54;98578.44;;;11.77;81.96
62548;BME280;48602;45.192;5.722;2023-04-21T00:22:19;98580.06;;;11.79;81.94
62548;BME280;48602;45.192;5.722;2023-04-21T00:24:45;98565.09;;;11.80;81.85
62548;BME280;48602;45.192;5.722;2023-04-21T00:27:11;98572.00;;;11.82;81.69
62548;BME280;48602;45.192;5.722;2023-04-21T00:29:37;98571.13;;;11.82;81.57
62548;BME280;48602;45.192;5.722;2023-04-21T00:32:04;98576.41;;;11.82;82.13
62548;BME280;48602;45.192;5.722;2023-04-21T00:34:33;98566.78;;;11.81;82.00
62548;BME280;48602;45.192;5.722;2023-04-21T00:36:58;98573.09;;;11.78;81.91
62548;BME280;48602;45.192;5.722;2023-04-21T00:39:23;98567.88;;;11.77;82.15
62548;BME280;48602;45.192;5.722;2023-04-21T00:41:49;98572.34;;;11.75;81.83
62548;BME280;48602;45.192;5.722;2023-04-21T00:44:15;98584.81;;;11.73;82.66
62548;BME280;48602;45.192;5.722;2023-04-21T00:46:40;98578.69;;;11.72;82.72
62548;BME280;48602;45.192;5.722;2023-04-21T00:49:07;98577.72;;;11.73;83.10
62548;BME280;48602;45.192;5.722;2023-04-21T00:51:34;98568.00;;;11.74;82.25
62548;BME280;48602;45.192;5.722;2023-04-21T00:54:03;98580.47;;;11.72;82.68
62548;BME280;48602;45.192;5.722;2023-04-21T00:56:31;98579.69;;;11.70;83.09
62548;BME280;48602;45.192;5.722;2023-04-21T00:58:58;98561.38;;;11.67;82.83
62548;BME280;48602;45.192;5.722;2023-04-21T01:01:24;98569.38;;;11.65;83.05
62548;BME280;48602;45.192;5.722;2023-04-21T01:03:50;98570.38;;;11.63;82.81
62548;BME280;48602;45.192;5.722;2023-04-21T01:06:16;98572.16;;;11.62;83.05
62548;BME280;48602;45.192;5.722;2023-04-21T01:08:43;98570.47;;;11.61;83.21
62548;BME280;48602;45.192;5.722;2023-04-21T01:11:10;98584.50;;;11.62;83.75
62548;BME280;48602;45.192;5.722;2023-04-21T01:13:37;98576.59;;;11.62;83.90
62548;BME280;48602;45.192;5.722;2023-04-21T01:16:03;98580.94;;;11.63;83.87
62548;BME280;48602;45.192;5.722;2023-04-21T01:18:29;98580.00;;;11.64;83.57
62548;BME280;48602;45.192;5.722;2023-04-21T01:20:54;98594.06;;;11.64;83.57
62548;BME280;48602;45.192;5.722;2023-04-21T01:23:20;98591.41;;;11.64;83.02
62548;BME280;48602;45.192;5.722;2023-04-21T01:25:45;98585.38;;;11.62;83.25
62548;BME280;48602;45.192;5.722;2023-04-21T01:28:11;98578.16;;;11.66;83.03
62548;BME280;48602;45.192;5.722;2023-04-21T01:30:37;98581.72;;;11.65;83.26
62548;BME280;48602;45.192;5.722;2023-04-21T01:33:02;98576.44;;;11.65;83.83
62548;BME280;48602;45.192;5.722;2023-04-21T01:35:28;98577.38;;;11.64;84.04
62548;BME280;48602;45.192;5.722;2023-04-21T01:37:54;98571.16;;;11.65;84.00
62548;BME280;48602;45.192;5.722;2023-04-21T01:40:19;98556.31;;;11.62;83.95
62548;BME280;48602;45.192;5.722;2023-04-21T01:42:45;98550.19;;;11.62;83.56
62548;BME280;48602;45.192;5.722;2023-04-21T01:45:10;98548.41;;;11.62;83.85
62548;BME280;48602;45.192;5.722;2023-04-21T01:47:36;98548.47;;;11.61;84.01
62548;BME280;48602;45.192;5.722;2023-04-21T01:50:01;98546.00;;;11.58;84.15
62548;BME280;48602;45.192;5.722;2023-04-21T01:52:27;98551.28;;;11.58;84.29
62548;BME280;48602;45.192;5.722;2023-04-21T01:54:53;98555.72;;;11.57;84.91
62548;BME280;48602;45.192;5.722;2023-04-21T01:57:19;98562.78;;;11.57;84.90
62548;BME280;48602;45.192;5.722;2023-04-21T01:59:45;98556.66;;;11.56;85.39
62548;BME280;48602;45.192;5.722;2023-04-21T02:02:10;98562.69;;;11.58;85.00
62548;BME280;48602;45.192;5.722;2023-04-21T02:04:36;98565.53;;;11.55;85.30
62548;BME280;48602;45.192;5.722;2023-04-21T02:07:01;98573.59;;;11.52;85.59
62548;BME280;48602;45.192;5.722;2023-04-21T02:09:26;98561.47;;;11.48;85.28
62548;BME280;48602;45.192;5.722;2023-04-21T02:11:54;98554.56;;;11.45;84.99
62548;BME280;48602;45.192;5.722;2023-04-21T02:14:19;98555.59;;;11.43;84.90
62548;BME280;48602;45.192;5.722;2023-04-21T02:16:45;98552.34;;;11.38;84.70
62548;BME280;48602;45.192;5.722;2023-04-21T02:19:10;98560.59;;;11.32;85.48
62548;BME280;48602;45.192;5.722;2023-04-21T02:21:35;98557.25;;;11.28;86.01
62548;BME280;48602;45.192;5.722;2023-04-21T02:24:01;98563.53;;;11.26;85.89
62548;BME280;48602;45.192;5.722;2023-04-21T02:26:26;98554.09;;;11.22;86.02
62548;BME280;48602;45.192;5.722;2023-04-21T02:28:52;98562.94;;;11.21;86.12
62548;BME280;48602;45.192;5.722;2023-04-21T02:31:17;98553.47;;;11.16;86.25
62548;BME280;48602;45.192;5.722;2023-04-21T02:33:43;98558.81;;;11.15;86.26
62548;BME280;48602;45.192;5.722;2023-04-21T02:36:09;98554.53;;;11.12;86.06
62548;BME280;48602;45.192;5.722;2023-04-21T02:38:34;98551.06;;;11.12;85.81
62548;BME280;48602;45.192;5.722;2023-04-21T02:41:00;98552.06;;;11.09;86.14
62548;BME280;48602;45.192;5.722;2023-04-21T02:43:25;98551.13;;;11.10;85.91
62548;BME280;48602;45.192;5.722;2023-04-21T02:45:51;98547.63;;;11.10;86.14
62548;BME280;48602;45.192;5.722;2023-04-21T02:48:16;98553.91;;;11.07;86.52
62548;BME280;48602;45.192;5.722;2023-04-21T02:50:47;98544.28;;;11.06;86.55
62548;BME280;48602;45.192;5.722;2023-04-21T02:53:13;98537.41;;;11.04;86.31
62548;BME280;48602;45.192;5.722;2023-04-21T02:55:39;98530.50;;;11.01;85.97
62548;BME280;48602;45.192;5.722;2023-04-21T02:58:04;98537.81;;;10.96;86.35
62548;BME280;48602;45.192;5.722;2023-04-21T03:00:29;98537.09;;;10.93;86.21
62548;BME280;48602;45.192;5.722;2023-04-21T03:02:55;98533.00;;;10.87;86.54
62548;BME280;48602;45.192;5.722;2023-04-21T03:05:29;98529.66;;;10.83;86.62
62548;BME280;48602;45.192;5.722;2023-04-21T03:07:55;98521.03;;;10.80;86.74
62548;BME280;48602;45.192;5.722;2023-04-21T03:10:21;98528.25;;;10.76;86.96
62548;BME280;48602;45.192;5.722;2023-04-21T03:12:46;98523.31;;;10.70;86.49
62548;BME280;48602;45.192;5.722;2023-04-21T03:15:11;98528.03;;;10.64;86.49
62548;BME280;48602;45.192;5.722;2023-04-21T03:17:39;98520.91;;;10.66;86.57
62548;BME280;48602;45.192;5.722;2023-04-21T03:20:05;98530.66;;;10.64;86.98
62548;BME280;48602;45.192;5.722;2023-04-21T03:22:32;98525.53;;;10.61;86.81
62548;BME280;48602;45.192;5.722;2023-04-21T03:24:57;98524.75;;;10.59;86.88
62548;BME280;48602;45.192;5.722;2023-04-21T03:27:22;98520.34;;;10.59;86.81
62548;BME280;48602;45.192;5.722;2023-04-21T03:29:48;98514.22;;;10.59;87.07
62548;BME280;48602;45.192;5.722;2023-04-21T03:32:13;98517.03;;;10.56;86.80
62548;BME280;48602;45.192;5.722;2023-04-21T03:34:38;98519.56;;;10.57;86.76
62548;BME280;48602;45.192;5.722;2023-04-21T03:37:04;98531.03;;;10.56;86.82
62548;BME280;48602;45.192;5.722;2023-04-21T03:39:29;98530.09;;;10.57;87.35
62548;BME280;48602;45.192;5.722;2023-04-21T03:41:55;98536.22;;;10.58;86.49
62548;BME280;48602;45.192;5.722;2023-04-21T03:44:20;98542.41;;;10.57;86.67
62548;BME280;48602;45.192;5.722;2023-04-21T03:46:45;98543.28;;;10.57;87.20
62548;BME280;48602;45.192;5.722;2023-04-21T03:49:11;98541.50;;;10.58;87.13
62548;BME280;48602;45.192;5.722;2023-04-21T03:51:36;98537.06;;;10.58;87.40
62548;BME280;48602;45.192;5.722;2023-04-21T03:54:02;98536.16;;;10.59;87.02
62548;BME280;48602;45.192;5.722;2023-04-21T03:56:27;98552.75;;;10.61;86.48
62548;BME280;48602;45.192;5.722;2023-04-21T03:58:52;98559.00;;;10.59;86.91
62548;BME280;48602;45.192;5.722;2023-04-21T04:01:18;98551.81;;;10.62;86.64
62548;BME280;48602;45.192;5.722;2023-04-21T04:03:44;98540.50;;;10.60;86.38
62548;BME280;48602;45.192;5.722;2023-04-21T04:06:09;98546.75;;;10.58;86.04
62548;BME280;48602;45.192;5.722;2023-04-21T04:08:34;98558.16;;;10.58;86.23
62548;BME280;48602;45.192;5.722;2023-04-21T04:11:00;98560.00;;;10.56;86.48
62548;BME280;48602;45.192;5.722;2023-04-21T04:13:25;98564.28;;;10.59;86.29
62548;BME280;48602;45.192;5.722;2023-04-21T04:15:52;98561.72;;;10.57;86.58
62548;BME280;48602;45.192;5.722;2023-04-21T04:18:17;98558.16;;;10.58;86.14
62548;BME280;48602;45.192;5.722;2023-04-21T04:20:42;98562.56;;;10.58;86.00
62548;BME280;48602;45.192;5.722;2023-04-21T04:23:08;98567.16;;;10.54;85.81
62548;BME280;48602;45.192;5.722;2023-04-21T04:25:33;98568.16;;;10.52;85.98
62548;BME280;48602;45.192;5.722;2023-04-21T04:27:59;98555.13;;;10.48;86.15
62548;BME280;48602;45.192;5.722;2023-04-21T04:30:25;98554.44;;;10.45;86.15
62548;BME280;48602;45.192;5.722;2023-04-21T04:32:52;98557.13;;;10.43;86.11
62548;BME280;48602;45.192;5.722;2023-04-21T04:35:18;98548.44;;;10.41;86.12
62548;BME280;48602;45.192;5.722;2023-04-21T04:37:43;98546.84;;;10.39;86.60
62548;BME280;48602;45.192;5.722;2023-04-21T04:40:09;98537.28;;;10.36;86.27
62548;BME280;48602;45.192;5.722;2023-04-21T04:42:38;98540.06;;;10.33;86.63
62548;BME280;48602;45.192;5.722;2023-04-21T04:45:05;98540.16;;;10.32;86.46
62548;BME280;48602;45.192;5.722;2023-04-21T04:47:32;98535.88;;;10.29;86.48
62548;BME280;48602;45.192;5.722;2023-04-21T04:49:58;98541.13;;;10.29;86.53
62548;BME280;48602;45.192;5.722;2023-04-21T04:52:23;98541.06;;;10.31;87.06
62548;BME280;48602;45.192;5.722;2023-04-21T04:54:48;98541.72;;;10.36;86.88
62548;BME280;48602;45.192;5.722;2023-04-21T04:57:14;98543.41;;;10.37;86.46
62548;BME280;48602;45.192;5.722;2023-04-21T04:59:39;98552.09;;;10.39;86.54
62548;BME280;48602;45.192;5.722;2023-04-21T05:02:06;98559.06;;;10.40;86.31
62548;BME280;48602;45.192;5.722;2023-04-21T05:04:33;98553.78;;;10.40;86.47
62548;BME280;48602;45.192;5.722;2023-04-21T05:06:58;98563.41;;;10.41;86.12
62548;BME280;48602;45.192;5.722;2023-04-21T05:09:23;98576.44;;;10.44;86.16
62548;BME280;48602;45.192;5.722;2023-04-21T05:11:50;98580.63;;;10.48;86.20
62548;BME280;48602;45.192;5.722;2023-04-21T05:14:15;98578.63;;;10.53;86.16
62548;BME280;48602;45.192;5.722;2023-04-21T05:16:42;98586.31;;;10.58;85.68
62548;BME280;48602;45.192;5.722;2023-04-21T05:19:07;98589.66;;;10.61;85.97
62548;BME280;48602;45.192;5.722;2023-04-21T05:21:33;98592.06;;;10.66;85.81
62548;BME280;48602;45.192;5.722;2023-04-21T05:23:58;98591.94;;;10.69;85.49
62548;BME280;48602;45.192;5.722;2023-04-21T05:26:25;98591.00;;;10.70;85.84
62548;BME280;48602;45.192;5.722;2023-04-21T05:28:54;98591.84;;;10.70;85.53
62548;BME280;48602;45.192;5.722;2023-04-21T05:31:23;98585.66;;;10.71;85.49
62548;BME280;48602;45.192;5.722;2023-04-21T05:33:49;98581.22;;;10.72;85.55
62548;BME280;48602;45.192;5.722;2023-04-21T05:36:14;98586.25;;;10.76;85.33
62548;BME280;48602;45.192;5.722;2023-04-21T05:38:40;98574.00;;;10.75;85.19
62548;BME280;48602;45.192;5.722;2023-04-21T05:41:05;98575.72;;;10.76;85.15
62548;BME280;48602;45.192;5.722;2023-04-21T05:43:31;98570.44;;;10.76;85.28
62548;BME280;48602;45.192;5.722;2023-04-21T05:46:07;98566.03;;;10.77;85.23
62548;BME280;48602;45.192;5.722;2023-04-21T05:48:33;98579.19;;;10.77;85.47
62548;BME280;48602;45.192;5.722;2023-04-21T05:51:12;98578.19;;;10.79;85.58
62548;BME280;48602;45.192;5.722;2023-04-21T05:53:38;98574.56;;;10.82;85.73
62548;BME280;48602;45.192;5.722;2023-04-21T05:56:04;98581.31;;;10.88;85.72
62548;BME280;48602;45.192;5.722;2023-04-21T05:58:30;98573.09;;;10.94;85.65
62548;BME280;48602;45.192;5.722;2023-04-21T06:00:55;98578.84;;;11.02;85.57
62548;BME280;48602;45.192;5.722;2023-04-21T06:03:21;98578.59;;;11.06;85.25
62548;BME280;48602;45.192;5.722;2023-04-21T06:05:46;98585.28;;;11.13;85.34
62548;BME280;48602;45.192;5.722;2023-04-21T06:08:12;98584.03;;;11.21;84.98
62548;BME280;48602;45.192;5.722;2023-04-21T06:10:37;98583.72;;;11.27;84.57
62548;BME280;48602;45.192;5.722;2023-04-21T06:13:03;98577.28;;;11.32;84.05
62548;BME280;48602;45.192;5.722;2023-04-21T06:15:28;98577.91;;;11.37;84.06
62548;BME280;48602;45.192;5.722;2023-04-21T06:17:53;98569.72;;;11.42;83.69
62548;BME280;48602;45.192;5.722;2023-04-21T06:20:21;98565.06;;;11.47;83.55
62548;BME280;48602;45.192;5.722;2023-04-21T06:22:47;98565.75;;;11.50;83.08
62548;BME280;48602;45.192;5.722;2023-04-21T06:25:12;98556.56;;;11.58;82.67
62548;BME280;48602;45.192;5.722;2023-04-21T06:27:37;98561.44;;;11.65;82.91
62548;BME280;48602;45.192;5.722;2023-04-21T06:30:03;98557.56;;;11.72;82.64
62548;BME280;48602;45.192;5.722;2023-04-21T06:32:29;98563.38;;;11.79;82.18
62548;BME280;48602;45.192;5.722;2023-04-21T06:34:54;98569.34;;;11.82;82.31
62548;BME280;48602;45.192;5.722;2023-04-21T06:37:19;98556.69;;;11.89;82.08
62548;BME280;48602;45.192;5.722;2023-04-21T06:39:45;98558.88;;;11.97;82.21
62548;BME280;48602;45.192;5.722;2023-04-21T06:42:10;98545.34;;;12.03;81.91
62548;BME280;48602;45.192;5.722;2023-04-21T06:44:36;98541.50;;;12.08;81.64
62548;BME280;48602;45.192;5.722;2023-04-21T06:47:02;98547.38;;;12.13;81.39
62548;BME280;48602;45.192;5.722;2023-04-21T06:49:28;98547.06;;;12.19;81.27
62548;BME280;48602;45.192;5.722;2023-04-21T06:51:53;98546.78;;;12.24;80.94
62548;BME280;48602;45.192;5.722;2023-04-21T06:54:18;98552.75;;;12.28;80.70
62548;BME280;48602;45.192;5.722;2023-04-21T06:56:44;98541.94;;;12.32;80.59
62548;BME280;48602;45.192;5.722;2023-04-21T06:59:09;98537.41;;;12.34;80.58
62548;BME280;48602;45.192;5.722;2023-04-21T07:01:35;98534.50;;;12.39;80.20
62548;BME280;48602;45.192;5.722;2023-04-21T07:04:00;98538.59;;;12.44;80.29
62548;BME280;48602;45.192;5.722;2023-04-21T07:06:26;98528.59;;;12.49;80.02
62548;BME280;48602;45.192;5.722;2023-04-21T07:08:51;98537.91;;;12.56;79.62
62548;BME280;48602;45.192;5.722;2023-04-21T07:11:16;98539.25;;;12.64;79.41
62548;BME280;48602;45.192;5.722;2023-04-21T07:13:42;98543.34;;;12.69;79.00
62548;BME280;48602;45.192;5.722;2023-04-21T07:16:07;98542.22;;;12.73;78.74
62548;BME280;48602;45.192;5.722;2023-04-21T07:18:32;98542.88;;;12.77;78.54
62548;BME280;48602;45.192;5.722;2023-04-21T07:20:59;98541.75;;;12.81;78.21
62548;BME280;48602;45.192;5.722;2023-04-21T07:23:25;98550.38;;;12.84;78.14
62548;BME280;48602;45.192;5.722;2023-04-21T07:25:50;98543.75;;;12.91;78.07
62548;BME280;48602;45.192;5.722;2023-04-21T07:28:15;98547.69;;;13.00;78.07
62548;BME280;48602;45.192;5.722;2023-04-21T07:30:41;98545.31;;;13.10;78.08
62548;BME280;48602;45.192;5.722;2023-04-21T07:33:06;98537.75;;;13.19;77.62
62548;BME280;48602;45.192;5.722;2023-04-21T07:35:33;98543.31;;;13.29;77.28
62548;BME280;48602;45.192;5.722;2023-04-21T07:37:58;98542.78;;;13.38;77.14
62548;BME280;48602;45.192;5.722;2023-04-21T07:40:23;98534.34;;;13.46;77.10
62548;BME280;48602;45.192;5.722;2023-04-21T07:42:49;98535.59;;;13.54;76.40
62548;BME280;48602;45.192;5.722;2023-04-21T07:45:14;98544.84;;;13.61;75.81
62548;BME280;48602;45.192;5.722;2023-04-21T07:47:40;98539.19;;;13.68;75.43
62548;BME280;48602;45.192;5.722;2023-04-21T07:50:06;98535.94;;;13.77;75.42
62548;BME280;48602;45.192;5.722;2023-04-21T07:52:31;98537.00;;;13.88;74.71
62548;BME280;48602;45.192;5.722;2023-04-21T07:54:57;98523.53;;;14.06;74.79
62548;BME280;48602;45.192;5.722;2023-04-21T07:57:22;98527.75;;;14.22;73.81
62548;BME280;48602;45.192;5.722;2023-04-21T07:59:48;98526.97;;;14.35;73.49
62548;BME280;48602;45.192;5.722;2023-04-21T08:02:13;98525.63;;;14.42;72.85
62548;BME280;48602;45.192;5.722;2023-04-21T08:04:38;98519.84;;;14.49;72.99
62548;BME280;48602;45.192;5.722;2023-04-21T08:07:04;98510.53;;;14.56;72.28
62548;BME280;48602;45.192;5.722;2023-04-21T08:09:29;98521.78;;;14.60;71.80
62548;BME280;48602;45.192;5.722;2023-04-21T08:11:55;98530.19;;;14.66;71.29
62548;BME280;48602;45.192;5.722;2023-04-21T08:14:22;98522.44;;;14.76;71.59
62548;BME280;48602;45.192;5.722;2023-04-21T08:16:47;98534.06;;;14.88;71.53
62548;BME280;48602;45.192;5.722;2023-04-21T08:19:13;98525.38;;;14.98;70.20
62548;BME280;48602;45.192;5.722;2023-04-21T08:21:39;98516.69;;;15.09;70.09
62548;BME280;48602;45.192;5.722;2023-04-21T08:24:04;98519.38;;;15.22;69.88
62548;BME280;48602;45.192;5.722;2023-04-21T08:26:30;98513.41;;;15.31;69.42
62548;BME280;48602;45.192;5.722;2023-04-21T08:28:58;98516.81;;;15.46;68.56
62548;BME280;48602;45.192;5.722;2023-04-21T08:31:24;98518.94;;;15.53;68.13
62548;BME280;48602;45.192;5.722;2023-04-21T08:33:49;98520.34;;;15.59;68.67
62548;BME280;48602;45.192;5.722;2023-04-21T08:36:15;98519.38;;;15.60;67.56
62548;BME280;48602;45.192;5.722;2023-04-21T08:38:43;98528.63;;;15.67;67.51
62548;BME280;48602;45.192;5.722;2023-04-21T08:41:09;98527.00;;;15.77;66.55
62548;BME280;48602;45.192;5.722;2023-04-21T08:43:35;98531.59;;;15.88;66.81
62548;BME280;48602;45.192;5.722;2023-04-21T08:46:06;98531.44;;;16.02;66.54
62548;BME280;48602;45.192;5.722;2023-04-21T08:48:34;98526.31;;;16.12;65.66
62548;BME280;48602;45.192;5.722;2023-04-21T08:51:00;98527.69;;;16.17;65.24
62548;BME280;48602;45.192;5.722;2023-04-21T08:53:26;98534.59;;;16.20;65.30
62548;BME280;48602;45.192;5.722;2023-04-21T08:55:54;98528.44;;;16.19;64.96
62548;BME280;48602;45.192;5.722;2023-04-21T08:58:20;98519.50;;;16.20;65.02
62548;BME280;48602;45.192;5.722;2023-04-21T09:00:49;98517.56;;;16.22;64.84
62548;BME280;48602;45.192;5.722;2023-04-21T09:03:20;98525.81;;;16.30;64.68
62548;BME280;48602;45.192;5.722;2023-04-21T09:05:56;98518.16;;;16.38;64.65
62548;BME280;48602;45.192;5.722;2023-04-21T09:08:22;98528.09;;;16.48;64.21
62548;BME280;48602;45.192;5.722;2023-04-21T09:10:50;98533.09;;;16.52;64.11
62548;BME280;48602;45.192;5.722;2023-04-21T09:13:19;98529.47;;;16.53;63.29
62548;BME280;48602;45.192;5.722;2023-04-21T09:15:50;98534.50;;;16.45;63.31
62548;BME280;48602;45.192;5.722;2023-04-21T09:18:23;98525.41;;;16.36;63.00
62548;BME280;48602;45.192;5.722;2023-04-21T09:20:51;98541.47;;;16.35;63.33
62548;BME280;48602;45.192;5.722;2023-04-21T09:23:17;98534.56;;;16.32;62.78
62548;BME280;48602;45.192;5.722;2023-04-21T09:25:44;98535.50;;;16.31;63.16
62548;BME280;48602;45.192;5.722;2023-04-21T09:28:13;98535.28;;;16.34;62.87
62548;BME280;48602;45.192;5.722;2023-04-21T09:30:41;98540.28;;;16.39;62.87
62548;BME280;48602;45.192;5.722;2023-04-21T09:33:14;98537.16;;;16.45;62.43
62548;BME280;48602;45.192;5.722;2023-04-21T09:35:40;98534.56;;;16.56;62.54
62548;BME280;48602;45.192;5.722;2023-04-21T09:38:11;98547.84;;;16.69;62.30
62548;BME280;48602;45.192;5.722;2023-04-21T09:40:36;98542.34;;;16.83;61.97
62548;BME280;48602;45.192;5.722;2023-04-21T09:43:02;98534.38;;;16.94;61.96
62548;BME280;48602;45.192;5.722;2023-04-21T09:45:28;98543.84;;;16.98;61.97
62548;BME280;48602;45.192;5.722;2023-04-21T09:47:56;98538.94;;;17.05;60.89
62548;BME280;48602;45.192;5.722;2023-04-21T09:50:23;98539.06;;;17.15;61.01
62548;BME280;48602;45.192;5.722;2023-04-21T09:52:50;98543.59;;;17.25;60.67
62548;BME280;48602;45.192;5.722;2023-04-21T09:55:18;98535.50;;;17.38;60.76
62548;BME280;48602;45.192;5.722;2023-04-21T09:57:45;98526.44;;;17.52;59.90
62548;BME280;48602;45.192;5.722;2023-04-21T10:00:12;98535.38;;;17.62;59.89
62548;BME280;48602;45.192;5.722;2023-04-21T10:02:43;98526.84;;;17.69;59.51
62548;BME280;48602;45.192;5.722;2023-04-21T10:05:10;98519.34;;;17.74;59.36
62548;BME280;48602;45.192;5.722;2023-04-21T10:07:36;98517.25;;;17.78;59.26
62548;BME280;48602;45.192;5.722;2023-04-21T10:10:02;98509.63;;;17.85;59.14
62548;BME280;48602;45.192;5.722;2023-04-21T10:12:28;98513.16;;;17.85;59.12
62548;BME280;48602;45.192;5.722;2023-04-21T10:14:54;98519.56;;;17.83;59.29
62548;BME280;48602;45.192;5.722;2023-04-21T10:17:25;98517.63;;;17.85;59.39
62548;BME280;48602;45.192;5.722;2023-04-21T10:19:55;98510.13;;;17.90;59.09
62548;BME280;48602;45.192;5.722;2023-04-21T10:22:31;98507.69;;;17.98;59.50
62548;BME280;48602;45.192;5.722;2023-04-21T10:25:02;98510.06;;;18.12;59.26
62548;BME280;48602;45.192;5.722;2023-04-21T10:29:57;98494.75;;;18.36;57.95
62548;BME280;48602;45.192;5.722;2023-04-21T10:32:42;98493.75;;;18.48;58.30
62548;BME280;48602;45.192;5.722;2023-04-21T10:35:22;98490.94;;;18.61;57.73
62548;BME280;48602;45.192;5.722;2023-04-21T10:37:49;98492.19;;;18.78;57.24
62548;BME280;48602;45.192;5.722;2023-04-21T10:40:35;98494.31;;;18.95;56.31
62548;BME280;48602;45.192;5.722;2023-04-21T10:43:04;98484.56;;;19.05;55.97
62548;BME280;48602;45.192;5.722;2023-04-21T10:45:30;98486.44;;;19.14;55.90
62548;BME280;48602;45.192;5.722;2023-04-21T10:47:58;98483.53;;;19.27;55.50
62548;BME280;48602;45.192;5.722;2023-04-21T10:50:29;98494.91;;;19.40;54.91
62548;BME280;48602;45.192;5.722;2023-04-21T10:53:07;98495.56;;;19.54;54.36
62548;BME280;48602;45.192;5.722;2023-04-21T10:55:37;98486.72;;;19.63;54.55
62548;BME280;48602;45.192;5.722;2023-04-21T10:58:05;98482.28;;;19.73;54.04
62548;BME280;48602;45.192;5.722;2023-04-21T11:00:31;98489.75;;;19.79;53.91
62548;BME280;48602;45.192;5.722;2023-04-21T11:03:02;98481.06;;;19.86;54.10
62548;BME280;48602;45.192;5.722;2023-04-21T11:05:29;98485.31;;;19.99;53.25
62548;BME280;48602;45.192;5.722;2023-04-21T11:08:06;98476.63;;;20.06;53.38
62548;BME280;48602;45.192;5.722;2023-04-21T11:10:54;98483.09;;;20.13;52.86
62548;BME280;48602;45.192;5.722;2023-04-21T11:13:25;98476.09;;;20.22;52.28
62548;BME280;48602;45.192;5.722;2023-04-21T11:15:55;98471.72;;;20.31;52.47
62548;BME280;48602;45.192;5.722;2023-04-21T11:18:31;98467.44;;;20.39;52.21
62548;BME280;48602;45.192;5.722;2023-04-21T11:21:12;98467.00;;;20.44;52.24
62548;BME280;48602;45.192;5.722;2023-04-21T11:23:48;98463.63;;;20.51;52.29
62548;BME280;48602;45.192;5.722;2023-04-21T11:26:13;98460.41;;;20.58;52.40
62548;BME280;48602;45.192;5.722;2023-04-21T11:28:40;98460.53;;;20.66;52.03
62548;BME280;48602;45.192;5.722;2023-04-21T11:31:06;98454.34;;;20.75;52.20
62548;BME280;48602;45.192;5.722;2023-04-21T11:33:35;98443.59;;;20.84;51.75
62548;BME280;48602;45.192;5.722;2023-04-21T11:36:05;98444.88;;;20.90;50.80
62548;BME280;48602;45.192;5.722;2023-04-21T11:38:41;98442.44;;;20.97;51.09
62548;BME280;48602;45.192;5.722;2023-04-21T11:41:07;98437.94;;;21.07;51.40
62548;BME280;48602;45.192;5.722;2023-04-21T11:43:34;98435.94;;;21.18;51.36
62548;BME280;48602;45.192;5.722;2023-04-21T11:46:26;98444.66;;;21.30;51.08
62548;BME280;48602;45.192;5.722;2023-04-21T11:51:23;98446.31;;;21.50;50.46
62548;BME280;48602;45.192;5.722;2023-04-21T11:53:48;98439.94;;;21.61;50.14
62548;BME280;48602;45.192;5.722;2023-04-21T11:56:17;98428.28;;;21.70;49.70
62548;BME280;48602;45.192;5.722;2023-04-21T11:58:48;98437.59;;;21.76;49.66
62548;BME280;48602;45.192;5.722;2023-04-21T12:01:17;98431.25;;;21.77;49.12
62548;BME280;48602;45.192;5.722;2023-04-21T12:03:55;98434.72;;;21.87;47.02
62548;BME280;48602;45.192;5.722;2023-04-21T12:06:24;98433.13;;;21.94;46.79
62548;BME280;48602;45.192;5.722;2023-04-21T12:08:54;98433.66;;;21.98;44.55
62548;BME280;48602;45.192;5.722;2023-04-21T12:11:21;98437.81;;;21.92;44.34
62548;BME280;48602;45.192;5.722;2023-04-21T12:13:47;98440.47;;;21.92;44.16
62548;BME280;48602;45.192;5.722;2023-04-21T12:16:12;98439.16;;;21.96;44.11
62548;BME280;48602;45.192;5.722;2023-04-21T12:18:37;98439.50;;;21.93;44.67
62548;BME280;48602;45.192;5.722;2023-04-21T12:21:03;98432.72;;;21.89;44.82
62548;BME280;48602;45.192;5.722;2023-04-21T12:23:28;98438.88;;;21.99;45.12
62548;BME280;48602;45.192;5.722;2023-04-21T12:25:54;98439.72;;;22.09;44.54
62548;BME280;48602;45.192;5.722;2023-04-21T12:28:19;98431.59;;;22.19;43.04
62548;BME280;48602;45.192;5.722;2023-04-21T12:30:45;98434.66;;;22.24;43.86
62548;BME280;48602;45.192;5.722;2023-04-21T12:33:11;98435.22;;;22.27;42.59
62548;BME280;48602;45.192;5.722;2023-04-21T12:35:37;98433.03;;;22.31;42.26
62548;BME280;48602;45.192;5.722;2023-04-21T12:38:03;98445.56;;;22.40;42.49
62548;BME280;48602;45.192;5.722;2023-04-21T12:40:28;98444.75;;;22.57;41.28
62548;BME280;48602;45.192;5.722;2023-04-21T12:42:54;98443.81;;;22.67;39.29
62548;BME280;48602;45.192;5.722;2023-04-21T12:45:19;98442.03;;;22.75;40.83
62548;BME280;48602;45.192;5.722;2023-04-21T12:47:45;98444.97;;;22.82;39.26
62548;BME280;48602;45.192;5.722;2023-04-21T12:50:10;98445.13;;;22.80;39.80
62548;BME280;48602;45.192;5.722;2023-04-21T12:52:36;98437.28;;;22.69;38.27
62548;BME280;48602;45.192;5.722;2023-04-21T12:55:02;98437.88;;;22.63;38.01
62548;BME280;48602;45.192;5.722;2023-04-21T12:57:27;98428.69;;;22.66;38.20
62548;BME280;48602;45.192;5.722;2023-04-21T12:59:53;98432.91;;;22.68;37.93
62548;BME280;48602;45.192;5.722;2023-04-21T13:02:19;98424.69;;;22.70;37.70